createdAt,value
2019-02-23T00:01:12.746Z,20.07
2019-02-23T00:03:44.489Z,20.27
2019-02-23T00:06:14.268Z,19.53
2019-02-23T00:08:44.167Z,19.80
2019-02-23T00:11:16.118Z,19.90
2019-02-23T00:13:46.017Z,19.83
2019-02-23T00:16:18.423Z,19.27
2019-02-23T00:18:50.362Z,19.30
2019-02-23T00:21:22.534Z,20.23
2019-02-23T00:23:52.433Z,20.67
2019-02-23T00:26:23.386Z,20.40
2019-02-23T00:28:54.190Z,21.83
2019-02-23T00:31:25.222Z,20.87
2019-02-23T00:33:57.989Z,20.10
2019-02-23T00:36:28.218Z,21.37
2019-02-23T00:38:59.387Z,20.10
2019-02-23T00:41:31.461Z,20.97
2019-02-23T00:44:02.189Z,20.40
2019-02-23T00:46:32.817Z,20.27
2019-02-23T00:49:05.231Z,20.80
2019-02-23T00:51:39.114Z,22.13
2019-02-23T00:54:09.974Z,21.60
2019-02-23T00:56:42.319Z,21.60
2019-02-23T00:59:13.547Z,21.87
2019-02-23T01:01:44.593Z,21.37
2019-02-23T01:04:15.434Z,21.50
2019-02-23T01:06:45.503Z,21.10
2019-02-23T01:09:16.641Z,21.20
2019-02-23T01:11:50.030Z,22.33
2019-02-23T01:14:19.777Z,22.63
2019-02-23T01:16:49.557Z,20.93
2019-02-23T01:19:20.205Z,21.70
2019-02-23T01:21:51.215Z,22.63
2019-02-23T01:24:22.357Z,22.77
2019-02-23T01:26:53.106Z,20.90
2019-02-23T01:29:23.244Z,23.00
2019-02-23T01:31:56.717Z,22.70
2019-02-23T01:34:27.399Z,23.77
2019-02-23T01:36:58.418Z,22.50
2019-02-23T01:39:29.557Z,22.47
2019-02-23T01:42:00.390Z,22.80
2019-02-23T01:44:30.426Z,22.77
2019-02-23T01:47:01.237Z,21.97
2019-02-23T01:49:32.226Z,22.27
2019-02-23T01:52:03.094Z,22.93
2019-02-23T01:54:33.709Z,24.67
2019-02-23T01:57:04.515Z,23.30
2019-02-23T01:59:35.150Z,23.67
2019-02-23T02:02:07.505Z,23.90
2019-02-23T02:04:37.585Z,24.40
2019-02-23T02:07:09.166Z,23.83
2019-02-23T02:09:40.270Z,23.80
2019-02-23T02:12:14.059Z,24.17
2019-02-23T02:14:44.994Z,22.63
2019-02-23T02:17:15.715Z,23.63
2019-02-23T02:19:46.619Z,23.50
2019-02-23T02:22:20.206Z,23.53
2019-02-23T02:24:52.973Z,23.50
2019-02-23T02:27:25.931Z,24.67
2019-02-23T02:29:56.132Z,23.77
2019-02-23T02:32:27.193Z,24.53
2019-02-23T02:34:57.382Z,23.07
2019-02-23T02:37:31.146Z,23.53
2019-02-23T02:40:01.260Z,22.80
2019-02-23T02:42:32.893Z,22.77
2019-02-23T02:45:02.798Z,23.40
2019-02-23T02:47:33.502Z,23.23
2019-02-23T02:50:03.593Z,22.53
2019-02-23T02:52:36.427Z,23.03
2019-02-23T02:55:08.735Z,21.80
2019-02-23T02:57:38.685Z,23.17
2019-02-23T03:00:10.690Z,23.70
2019-02-23T03:02:40.843Z,22.20
2019-02-23T03:05:12.194Z,22.70
2019-02-23T03:07:43.421Z,21.73
2019-02-23T03:10:16.427Z,22.23
2019-02-23T03:12:46.637Z,21.10
2019-02-23T03:15:16.532Z,22.07
2019-02-23T03:17:47.254Z,21.27
2019-02-23T03:20:19.137Z,20.87
2019-02-23T03:22:49.014Z,21.07
2019-02-23T03:25:19.618Z,20.93
2019-02-23T03:27:50.270Z,20.83
2019-02-23T03:30:20.023Z,20.13
2019-02-23T03:32:51.572Z,20.73
2019-02-23T03:35:23.013Z,21.27
2019-02-23T03:37:53.870Z,20.27
2019-02-23T03:40:23.634Z,21.33
2019-02-23T03:42:54.336Z,21.57
2019-02-23T03:45:24.962Z,19.97
2019-02-23T03:47:55.698Z,21.33
2019-02-23T03:50:25.864Z,21.13
2019-02-23T03:52:56.053Z,20.40
2019-02-23T03:55:25.953Z,21.87
2019-02-23T03:57:57.025Z,20.63
2019-02-23T04:00:27.834Z,20.97
2019-02-23T04:02:59.058Z,20.70
2019-02-23T04:05:29.329Z,20.73
2019-02-23T04:08:00.282Z,20.80
2019-02-23T04:10:32.169Z,19.40
2019-02-23T04:13:01.918Z,19.90
2019-02-23T04:15:33.146Z,18.97
2019-02-23T04:18:04.018Z,19.43
2019-02-23T04:20:35.370Z,23.80
2019-02-23T04:23:06.132Z,29.63
2019-02-23T04:25:36.769Z,24.93
2019-02-23T04:28:07.053Z,20.27
2019-02-23T04:30:36.858Z,19.97
2019-02-23T04:33:06.941Z,18.93
2019-02-23T04:35:38.061Z,18.77
2019-02-23T04:38:09.766Z,19.37
2019-02-23T04:40:39.526Z,18.63
2019-02-23T04:43:08.791Z,19.13
2019-02-23T04:45:39.590Z,18.67
2019-02-23T04:48:10.429Z,18.03
2019-02-23T04:50:41.413Z,17.83
2019-02-23T04:53:12.202Z,17.67
2019-02-23T04:55:43.498Z,18.67
2019-02-23T04:58:14.346Z,16.10
2019-02-23T05:00:46.886Z,16.07
2019-02-23T05:03:17.028Z,16.67
2019-02-23T05:05:47.220Z,16.90
2019-02-23T05:08:18.050Z,16.63
2019-02-23T05:10:48.663Z,16.63
2019-02-23T05:13:20.001Z,15.53
2019-02-23T05:15:52.651Z,15.67
2019-02-23T05:18:23.494Z,16.50
2019-02-23T05:20:53.317Z,15.73
2019-02-23T05:23:25.009Z,15.13
2019-02-23T05:25:54.762Z,16.53
2019-02-23T05:28:25.475Z,16.43
2019-02-23T05:30:55.037Z,16.90
2019-02-23T05:33:24.941Z,16.40
2019-02-23T05:35:55.647Z,16.17
2019-02-23T05:38:27.917Z,16.77
2019-02-23T05:40:58.979Z,14.80
2019-02-23T05:43:29.988Z,16.20
2019-02-23T05:46:00.849Z,16.30
2019-02-23T05:48:30.915Z,16.27
2019-02-23T05:51:01.031Z,16.57
2019-02-23T05:53:30.897Z,16.83
2019-02-23T05:56:03.419Z,16.33
2019-02-23T05:58:34.133Z,16.77
2019-02-23T06:01:04.853Z,16.07
2019-02-23T06:03:34.646Z,15.97
2019-02-23T06:06:04.486Z,17.27
2019-02-23T06:08:35.202Z,16.57
2019-02-23T06:11:08.686Z,16.67
2019-02-23T06:13:39.356Z,17.27
2019-02-23T06:16:09.038Z,17.87
2019-02-23T06:18:41.454Z,18.13
2019-02-23T06:21:12.547Z,17.13
2019-02-23T06:23:43.721Z,18.07
2019-02-23T06:26:14.957Z,16.93
2019-02-23T06:28:44.829Z,18.13
2019-02-23T06:31:33.840Z,17.63
2019-02-23T06:34:15.398Z,17.20
2019-02-23T06:36:40.297Z,18.53
2019-02-23T06:39:12.025Z,17.50
2019-02-23T06:41:41.776Z,16.30
2019-02-23T06:44:12.527Z,17.37
2019-02-23T06:46:43.147Z,18.07
2019-02-23T06:49:14.734Z,16.37
2019-02-23T06:51:45.526Z,16.90
2019-02-23T06:54:16.276Z,17.17
2019-02-23T06:56:46.998Z,17.07
2019-02-23T06:59:18.622Z,17.83
2019-02-23T07:01:48.717Z,17.40
2019-02-23T07:04:20.393Z,16.53
2019-02-23T07:06:50.105Z,16.60
2019-02-23T07:09:19.832Z,16.53
2019-02-23T07:11:50.890Z,16.67
2019-02-23T07:14:21.608Z,16.27
2019-02-23T07:16:52.965Z,17.43
2019-02-23T07:19:23.760Z,16.73
2019-02-23T07:21:54.483Z,17.53
2019-02-23T07:24:25.802Z,16.67
2019-02-23T07:26:56.019Z,16.67
2019-02-23T07:29:27.802Z,17.13
2019-02-23T07:31:58.713Z,16.70
2019-02-23T07:34:28.786Z,16.63
2019-02-23T07:37:01.728Z,16.00
2019-02-23T07:39:33.348Z,15.77
2019-02-23T07:42:07.235Z,17.73
2019-02-23T07:44:37.401Z,17.17
2019-02-23T07:47:08.694Z,16.97
2019-02-23T07:49:38.469Z,15.67
2019-02-23T07:52:09.490Z,16.00
2019-02-23T07:54:41.497Z,15.20
2019-02-23T07:57:13.304Z,14.83
2019-02-23T07:59:43.183Z,16.03
2019-02-23T08:02:16.200Z,16.00
2019-02-23T08:04:49.031Z,15.43
2019-02-23T08:07:19.744Z,14.87
2019-02-23T08:09:49.929Z,14.27
2019-02-23T08:12:21.050Z,15.17
2019-02-23T08:14:52.765Z,15.00
2019-02-23T08:17:24.310Z,14.73
2019-02-23T08:19:55.030Z,15.00
2019-02-23T08:22:36.847Z,14.40
2019-02-23T08:24:59.803Z,13.80
2019-02-23T08:27:30.911Z,12.97
2019-02-23T08:30:01.958Z,13.27
2019-02-23T08:32:32.787Z,12.83
2019-02-23T08:35:02.482Z,14.23
2019-02-23T08:37:33.493Z,14.57
2019-02-23T08:40:04.714Z,13.27
2019-02-23T08:42:34.507Z,13.70
2019-02-23T08:45:08.975Z,13.30
2019-02-23T08:47:38.770Z,14.10
2019-02-23T08:50:15.881Z,13.47
2019-02-23T08:52:49.496Z,14.00
2019-02-23T08:55:18.465Z,12.97
2019-02-23T08:57:49.455Z,12.17
2019-02-23T09:00:20.158Z,13.07
2019-02-23T09:02:49.463Z,13.20
2019-02-23T09:05:20.160Z,13.37
2019-02-23T09:07:52.796Z,12.73
2019-02-23T09:10:25.139Z,13.90
2019-02-23T09:12:54.573Z,12.60
2019-02-23T09:15:24.505Z,13.47
2019-02-23T09:17:55.214Z,13.53
2019-02-23T09:20:29.399Z,13.07
2019-02-23T09:23:00.467Z,12.93
2019-02-23T09:25:32.339Z,13.43
2019-02-23T09:28:02.916Z,13.43
2019-02-23T09:30:33.545Z,12.20
2019-02-23T09:33:04.738Z,12.90
2019-02-23T09:35:34.947Z,12.17
2019-02-23T09:38:04.855Z,12.23
2019-02-23T09:40:37.105Z,11.90
2019-02-23T09:43:10.794Z,12.67
2019-02-23T09:45:43.848Z,12.17
2019-02-23T09:48:15.010Z,11.93
2019-02-23T09:50:47.861Z,11.57
2019-02-23T09:53:17.542Z,11.93
2019-02-23T09:55:48.098Z,11.90
2019-02-23T09:58:18.704Z,11.93
2019-02-23T10:00:48.826Z,11.73
2019-02-23T10:03:21.638Z,11.57
2019-02-23T10:05:51.829Z,10.93
2019-02-23T10:08:22.010Z,11.67
2019-02-23T10:10:53.082Z,12.47
2019-02-23T10:13:26.545Z,11.30
2019-02-23T10:15:56.646Z,10.90
2019-02-23T10:18:26.581Z,10.87
2019-02-23T10:20:57.311Z,11.40
2019-02-23T10:23:26.973Z,11.67
2019-02-23T10:25:57.738Z,11.57
2019-02-23T10:28:27.401Z,11.67
2019-02-23T10:30:57.074Z,11.30
2019-02-23T10:33:28.994Z,11.60
2019-02-23T10:36:00.129Z,11.33
2019-02-23T10:38:31.002Z,11.27
2019-02-23T10:41:00.754Z,10.63
2019-02-23T10:43:30.537Z,10.50
2019-02-23T10:46:01.250Z,11.87
2019-02-23T10:48:34.605Z,12.20
2019-02-23T10:51:05.295Z,11.37
2019-02-23T10:53:36.637Z,10.57
2019-02-23T10:56:06.643Z,11.10
2019-02-23T10:58:36.714Z,10.57
2019-02-23T11:01:08.484Z,11.00
2019-02-23T11:03:39.654Z,10.00
2019-02-23T11:06:09.713Z,10.30
2019-02-23T11:08:39.877Z,10.40
2019-02-23T11:11:12.329Z,10.93
2019-02-23T11:13:42.573Z,10.17
2019-02-23T11:16:12.457Z,9.97
2019-02-23T11:18:42.169Z,10.50
2019-02-23T11:21:12.805Z,9.57
2019-02-23T11:23:44.676Z,10.43
2019-02-23T11:26:14.526Z,9.90
2019-02-23T11:28:45.576Z,9.90
2019-02-23T11:31:15.475Z,9.00
2019-02-23T11:33:47.860Z,8.33
2019-02-23T11:36:19.733Z,7.90
2019-02-23T11:38:52.427Z,6.90
2019-02-23T11:41:24.981Z,6.97
2019-02-23T11:43:56.690Z,7.47
2019-02-23T11:46:26.382Z,6.80
2019-02-23T11:48:57.086Z,7.40
2019-02-23T11:51:26.801Z,8.20
2019-02-23T11:53:57.166Z,7.63
2019-02-23T11:56:26.913Z,7.30
2019-02-23T11:58:57.536Z,7.03
2019-02-23T12:01:27.606Z,7.40
2019-02-23T12:04:01.706Z,7.67
2019-02-23T12:06:32.947Z,7.40
2019-02-23T12:09:03.746Z,6.93
2019-02-23T12:11:33.533Z,7.13
2019-02-23T12:14:03.734Z,8.00
2019-02-23T12:16:33.532Z,7.83
2019-02-23T12:19:05.627Z,7.90
2019-02-23T12:21:36.921Z,8.63
2019-02-23T12:24:09.371Z,9.33
2019-02-23T12:26:40.033Z,8.00
2019-02-23T12:29:12.514Z,7.97
2019-02-23T12:31:44.939Z,23.73
2019-02-23T12:34:14.763Z,7.53
2019-02-23T12:36:47.117Z,7.73
2019-02-23T12:39:18.208Z,8.10
2019-02-23T12:41:49.081Z,7.80
2019-02-23T12:44:19.773Z,6.77
2019-02-23T12:46:52.494Z,8.03
2019-02-23T12:49:23.029Z,7.60
2019-02-23T12:51:53.220Z,7.17
2019-02-23T12:54:24.844Z,7.77
2019-02-23T12:56:56.058Z,7.47
2019-02-23T12:59:27.785Z,7.03
2019-02-23T13:01:58.789Z,7.47
2019-02-23T13:04:30.836Z,7.23
2019-02-23T13:07:02.669Z,6.63
2019-02-23T13:09:36.089Z,6.07
2019-02-23T13:12:10.427Z,6.57
2019-02-23T13:14:59.345Z,5.90
2019-02-23T13:17:31.589Z,6.00
2019-02-23T13:20:22.507Z,6.43
2019-02-23T13:23:09.835Z,6.33
2019-02-23T13:25:57.929Z,5.57
2019-02-23T13:29:02.621Z,5.90
2019-02-23T13:31:40.862Z,5.83
2019-02-23T13:34:19.101Z,5.83
2019-02-23T13:36:58.829Z,5.77
2019-02-23T13:39:48.461Z,5.53
2019-02-23T13:42:26.618Z,6.27
2019-02-23T13:45:11.003Z,5.53
2019-02-23T13:48:04.566Z,5.67
2019-02-23T13:50:41.553Z,5.83
2019-02-23T13:53:31.307Z,5.83
2019-02-23T13:56:06.520Z,6.20
2019-02-23T13:58:40.662Z,5.80
2019-02-23T14:01:17.624Z,6.20
2019-02-23T14:04:10.597Z,6.07
2019-02-23T14:06:52.701Z,6.23
2019-02-23T14:09:55.401Z,15.27
2019-02-23T14:12:36.761Z,5.80
2019-02-23T14:15:10.925Z,5.90
2019-02-23T14:17:43.331Z,5.97
2019-02-23T14:20:26.545Z,6.00
2019-02-23T14:23:04.714Z,6.10
2019-02-23T14:26:11.559Z,5.97
2019-02-23T14:28:51.721Z,5.47
2019-02-23T14:31:35.033Z,5.50
2019-02-23T14:34:16.421Z,5.03
2019-02-23T14:36:56.802Z,5.50
2019-02-23T14:40:05.065Z,5.43
2019-02-23T14:45:28.382Z,5.97
2019-02-23T14:48:17.452Z,5.07
2019-02-23T14:50:51.909Z,5.03
2019-02-23T14:53:59.525Z,5.30
2019-02-23T14:56:32.339Z,5.43
2019-02-23T14:59:11.485Z,5.60
2019-02-23T15:01:49.550Z,5.40
2019-02-23T15:04:31.437Z,4.80
2019-02-23T15:07:02.819Z,5.80
2019-02-23T15:09:55.895Z,4.90
2019-02-23T15:12:39.277Z,5.60
2019-02-23T15:15:17.677Z,5.53
2019-02-23T15:18:46.044Z,5.30
2019-02-23T15:21:25.926Z,5.00
2019-02-23T15:24:07.409Z,5.67
2019-02-23T15:26:44.654Z,5.20
2019-02-23T15:29:23.260Z,5.17
2019-02-23T15:32:13.670Z,5.50
2019-02-23T15:35:16.059Z,5.50
2019-02-23T15:38:08.553Z,5.83
2019-02-23T15:40:59.854Z,5.43
2019-02-23T15:43:32.344Z,5.63
2019-02-23T15:46:04.593Z,5.60
2019-02-23T15:48:56.632Z,6.17
2019-02-23T15:51:28.744Z,5.40
2019-02-23T15:53:59.656Z,6.13
2019-02-23T15:56:29.625Z,6.07
2019-02-23T15:58:59.706Z,6.07
2019-02-23T16:01:30.472Z,5.53
2019-02-23T16:04:02.223Z,6.80
2019-02-23T16:06:33.205Z,5.90
2019-02-23T16:09:03.138Z,6.17
2019-02-23T16:11:32.861Z,5.60
2019-02-23T16:14:03.637Z,6.27
2019-02-23T16:16:33.794Z,5.90
2019-02-23T16:19:06.633Z,5.40
2019-02-23T16:21:36.521Z,5.87
2019-02-23T16:24:06.278Z,5.83
2019-02-23T16:26:38.043Z,6.10
2019-02-23T16:29:09.694Z,6.07
2019-02-23T16:31:40.817Z,6.37
2019-02-23T16:34:11.049Z,5.83
2019-02-23T16:36:41.806Z,5.80
2019-02-23T16:39:12.462Z,6.67
2019-02-23T16:41:44.281Z,6.00
2019-02-23T16:44:14.502Z,6.07
2019-02-23T16:46:46.372Z,5.90
2019-02-23T16:49:17.681Z,6.03
2019-02-23T16:51:48.793Z,6.03
2019-02-23T16:54:19.929Z,6.30
2019-02-23T16:56:51.669Z,5.40
2019-02-23T16:59:24.204Z,5.57
2019-02-23T17:01:54.827Z,6.17
2019-02-23T17:04:25.810Z,5.93
2019-02-23T17:06:58.135Z,5.40
2019-02-23T17:09:29.222Z,5.70
2019-02-23T17:12:02.005Z,5.80
2019-02-23T17:14:32.289Z,6.47
2019-02-23T17:17:02.237Z,6.40
2019-02-23T17:19:33.636Z,6.10
2019-02-23T17:22:04.367Z,5.77
2019-02-23T17:24:36.573Z,5.77
2019-02-23T17:27:07.446Z,6.90
2019-02-23T17:29:38.341Z,6.13
2019-02-23T17:32:08.533Z,6.90
2019-02-23T17:34:42.569Z,6.20
2019-02-23T17:37:16.677Z,6.10
2019-02-23T17:39:46.655Z,6.10
2019-02-23T17:42:28.500Z,6.13
2019-02-23T17:44:49.983Z,6.50
2019-02-23T17:47:22.131Z,6.27
2019-02-23T17:49:52.246Z,7.27
2019-02-23T17:52:22.884Z,6.70
2019-02-23T17:54:54.909Z,6.67
2019-02-23T17:57:25.106Z,7.30
2019-02-23T17:59:55.986Z,7.30
2019-02-23T18:02:26.674Z,6.60
2019-02-23T18:04:58.357Z,6.90
2019-02-23T18:07:30.646Z,7.27
2019-02-23T18:10:01.869Z,6.93
2019-02-23T18:12:32.683Z,6.97
2019-02-23T18:15:03.701Z,6.90
2019-02-23T18:17:34.818Z,7.50
2019-02-23T18:20:11.446Z,7.40
2019-02-23T18:22:43.068Z,7.07
2019-02-23T18:25:14.034Z,7.30
2019-02-23T18:27:45.259Z,7.43
2019-02-23T18:30:16.921Z,6.57
2019-02-23T18:32:46.638Z,18.83
2019-02-23T18:35:16.663Z,9.23
2019-02-23T18:37:48.682Z,7.87
2019-02-23T18:40:18.870Z,7.60
2019-02-23T18:42:51.846Z,7.40
2019-02-23T18:45:25.237Z,8.03
2019-02-23T18:47:56.978Z,7.60
2019-02-23T18:50:27.699Z,7.70
2019-02-23T18:52:57.754Z,10.70
2019-02-23T18:55:28.701Z,9.17
2019-02-23T18:58:01.065Z,9.50
2019-02-23T19:00:31.790Z,8.20
2019-02-23T19:03:04.220Z,7.70
2019-02-23T19:05:35.733Z,8.13
2019-02-23T19:08:07.503Z,7.50
2019-02-23T19:10:38.229Z,8.10
2019-02-23T19:13:08.522Z,7.50
2019-02-23T19:15:39.754Z,7.43
2019-02-23T19:18:11.666Z,7.50
2019-02-23T19:20:43.014Z,7.93
2019-02-23T19:23:16.015Z,7.40
2019-02-23T19:25:47.120Z,7.10
2019-02-23T19:28:17.959Z,6.70
2019-02-23T19:30:47.990Z,7.53
2019-02-23T19:33:20.153Z,7.77
2019-02-23T19:35:52.955Z,8.30
2019-02-23T19:38:23.994Z,7.63
2019-02-23T19:40:57.375Z,7.10
2019-02-23T19:43:28.381Z,7.80
2019-02-23T19:45:58.329Z,7.77
2019-02-23T19:48:28.401Z,7.77
2019-02-23T19:51:01.729Z,7.07
2019-02-23T19:53:31.634Z,7.97
2019-02-23T19:56:01.405Z,8.37
2019-02-23T19:58:32.747Z,8.37
2019-02-23T20:01:03.481Z,7.57
2019-02-23T20:03:35.365Z,8.37
2019-02-23T20:06:06.353Z,8.77
2019-02-23T20:08:37.363Z,9.50
2019-02-23T20:11:09.927Z,8.50
2019-02-23T20:13:40.813Z,8.50
2019-02-23T20:16:11.835Z,8.53
2019-02-23T20:18:41.737Z,9.07
2019-02-23T20:21:15.622Z,8.47
2019-02-23T20:23:48.139Z,9.23
2019-02-23T20:26:18.842Z,9.60
2019-02-23T20:28:49.753Z,9.87
2019-02-23T20:31:19.513Z,9.93
2019-02-23T20:33:49.707Z,9.03
2019-02-23T20:36:20.828Z,8.93
2019-02-23T20:38:52.906Z,9.17
2019-02-23T20:41:24.045Z,9.23
2019-02-23T20:43:54.172Z,8.77
2019-02-23T20:46:26.011Z,8.07
2019-02-23T20:48:56.738Z,8.93
2019-02-23T20:51:28.813Z,10.30
2019-02-23T20:53:59.738Z,9.20
2019-02-23T20:56:32.206Z,8.73
2019-02-23T20:59:02.949Z,8.67
2019-02-23T21:01:32.737Z,9.67
2019-02-23T21:04:02.529Z,8.60
2019-02-23T21:06:33.341Z,8.77
2019-02-23T21:09:03.111Z,8.80
2019-02-23T21:11:37.318Z,8.83
2019-02-23T21:14:09.757Z,8.70
2019-02-23T21:16:40.531Z,9.33
2019-02-23T21:19:11.333Z,8.97
2019-02-23T21:21:43.663Z,9.10
2019-02-23T21:24:15.600Z,8.83
2019-02-23T21:26:46.329Z,8.80
2019-02-23T21:29:17.429Z,8.47
2019-02-23T21:31:48.375Z,9.13
2019-02-23T21:34:18.977Z,9.33
2019-02-23T21:36:49.997Z,8.43
2019-02-23T21:39:22.939Z,8.87
2019-02-23T21:41:54.089Z,8.60
2019-02-23T21:44:24.886Z,8.53
2019-02-23T21:46:55.532Z,8.63
2019-02-23T21:49:27.206Z,8.83
2019-02-23T21:51:57.976Z,8.40
2019-02-23T21:54:28.728Z,8.73
2019-02-23T21:57:00.655Z,8.67
2019-02-23T21:59:32.976Z,8.90
2019-02-23T22:02:03.715Z,8.50
2019-02-23T22:04:36.182Z,8.73
2019-02-23T22:07:06.080Z,8.77
2019-02-23T22:09:36.794Z,8.27
2019-02-23T22:12:07.503Z,8.77
2019-02-23T22:14:40.004Z,9.23
2019-02-23T22:17:11.006Z,8.10
2019-02-23T22:19:41.245Z,8.70
2019-02-23T22:22:12.387Z,8.83
2019-02-23T22:24:43.294Z,8.63
2019-02-23T22:27:14.287Z,8.60
2019-02-23T22:29:47.560Z,8.47
2019-02-23T22:32:18.369Z,8.83
2019-02-23T22:34:48.974Z,8.73
2019-02-23T22:37:20.062Z,8.30
2019-02-23T22:39:53.785Z,8.50
2019-02-23T22:42:24.771Z,8.80
2019-02-23T22:44:56.557Z,9.20
2019-02-23T22:47:27.385Z,9.00
2019-02-23T22:49:58.094Z,8.73
2019-02-23T22:52:27.822Z,8.93
2019-02-23T22:54:59.764Z,11.80
2019-02-23T22:57:30.795Z,9.27
2019-02-23T23:00:02.854Z,8.47
2019-02-23T23:02:33.708Z,9.40
2019-02-23T23:05:03.461Z,8.40
2019-02-23T23:07:33.597Z,8.83
2019-02-23T23:10:04.825Z,9.30
2019-02-23T23:12:35.901Z,9.13
2019-02-23T23:15:08.746Z,9.07
2019-02-23T23:17:38.620Z,9.07
2019-02-23T23:20:10.476Z,8.87
2019-02-23T23:22:40.674Z,8.83
2019-02-23T23:25:12.163Z,9.33
2019-02-23T23:27:49.117Z,9.57
2019-02-23T23:30:13.775Z,9.57
2019-02-23T23:32:44.997Z,9.50
2019-02-23T23:35:17.317Z,9.10
2019-02-23T23:37:47.497Z,9.37
2019-02-23T23:40:19.085Z,8.87
2019-02-23T23:42:57.998Z,9.03
2019-02-23T23:45:22.572Z,9.13
2019-02-23T23:47:52.365Z,8.73
2019-02-23T23:50:22.149Z,9.10
2019-02-23T23:52:53.192Z,9.10
2019-02-23T23:55:26.231Z,8.90
2019-02-23T23:57:58.582Z,8.53
